createdAt,value
2022-11-06T00:00:37.572Z,100.00
2022-11-06T00:03:05.603Z,100.00
2022-11-06T00:05:52.903Z,100.00
2022-11-06T00:08:31.692Z,100.00
2022-11-06T00:10:58.878Z,100.00
2022-11-06T00:13:25.653Z,100.00
2022-11-06T00:15:52.537Z,100.00
2022-11-06T00:18:19.276Z,100.00
2022-11-06T00:20:47.296Z,100.00
2022-11-06T00:23:13.954Z,100.00
2022-11-06T00:25:41.558Z,100.00
2022-11-06T00:28:08.746Z,100.00
2022-11-06T00:30:35.566Z,100.00
2022-11-06T00:33:02.388Z,100.00
2022-11-06T00:35:29.391Z,100.00
2022-11-06T00:37:57.407Z,100.00
2022-11-06T00:40:24.207Z,100.00
2022-11-06T00:42:55.203Z,100.00
2022-11-06T00:45:21.903Z,100.00
2022-11-06T00:47:48.751Z,100.00
2022-11-06T00:50:15.711Z,100.00
2022-11-06T00:52:42.592Z,100.00
2022-11-06T00:55:11.259Z,100.00
2022-11-06T00:57:37.945Z,100.00
2022-11-06T01:00:05.753Z,100.00
2022-11-06T01:02:32.625Z,100.00
2022-11-06T01:04:59.354Z,100.00
2022-11-06T01:07:26.059Z,100.00
2022-11-06T01:09:52.749Z,100.00
2022-11-06T01:12:20.860Z,100.00
2022-11-06T01:14:47.588Z,100.00
2022-11-06T01:17:14.524Z,100.00
2022-11-06T01:19:41.308Z,100.00
2022-11-06T01:22:07.958Z,100.00
2022-11-06T01:24:35.044Z,100.00
2022-11-06T01:29:50.207Z,100.00
2022-11-06T01:32:16.832Z,100.00
2022-11-06T01:34:43.488Z,100.00
2022-11-06T01:37:14.246Z,100.00
2022-11-06T01:39:41.508Z,100.00
2022-11-06T01:42:11.053Z,100.00
2022-11-06T01:45:19.342Z,100.00
2022-11-06T01:47:46.324Z,100.00
2022-11-06T01:50:15.557Z,100.00
2022-11-06T01:52:45.388Z,100.00
2022-11-06T01:55:15.565Z,100.00
2022-11-06T01:57:42.717Z,100.00
2022-11-06T02:00:12.590Z,100.00
2022-11-06T02:02:40.755Z,100.00
2022-11-06T02:05:08.465Z,100.00
2022-11-06T02:07:35.914Z,100.00
2022-11-06T02:10:03.199Z,100.00
2022-11-06T02:12:41.836Z,100.00
2022-11-06T02:15:17.242Z,100.00
2022-11-06T02:17:55.770Z,100.00
2022-11-06T02:20:28.869Z,100.00
2022-11-06T02:23:10.528Z,100.00
2022-11-06T02:25:46.543Z,100.00
2022-11-06T02:28:22.852Z,100.00
2022-11-06T02:30:51.478Z,100.00
2022-11-06T02:33:23.908Z,100.00
2022-11-06T02:35:53.772Z,100.00
2022-11-06T02:38:25.651Z,100.00
2022-11-06T02:40:55.997Z,100.00
2022-11-06T02:43:28.464Z,100.00
2022-11-06T02:45:58.393Z,100.00
2022-11-06T02:48:30.602Z,100.00
2022-11-06T02:51:00.779Z,100.00
2022-11-06T02:53:30.046Z,100.00
2022-11-06T02:56:00.079Z,100.00
2022-11-06T02:58:37.827Z,100.00
2022-11-06T03:01:14.044Z,100.00
2022-11-06T03:03:48.091Z,100.00
2022-11-06T03:06:15.711Z,100.00
2022-11-06T03:08:45.863Z,100.00
2022-11-06T03:11:18.627Z,100.00
2022-11-06T03:13:54.258Z,100.00
2022-11-06T03:16:31.316Z,100.00
2022-11-06T03:19:05.962Z,100.00
2022-11-06T03:21:40.933Z,100.00
2022-11-06T03:24:14.693Z,100.00
2022-11-06T03:26:47.274Z,100.00
2022-11-06T03:29:19.917Z,100.00
2022-11-06T03:31:51.873Z,100.00
2022-11-06T03:34:28.491Z,100.00
2022-11-06T03:37:01.491Z,100.00
2022-11-06T03:39:32.981Z,100.00
2022-11-06T03:42:04.770Z,100.00
2022-11-06T03:44:36.937Z,100.00
2022-11-06T03:47:09.033Z,100.00
2022-11-06T03:49:39.171Z,100.00
2022-11-06T03:52:11.039Z,100.00
2022-11-06T03:54:43.019Z,100.00
2022-11-06T03:57:13.936Z,100.00
2022-11-06T03:59:47.694Z,100.00
2022-11-06T04:02:17.154Z,100.00
2022-11-06T04:04:48.972Z,100.00
2022-11-06T04:07:19.804Z,100.00
2022-11-06T04:10:10.902Z,100.00
2022-11-06T04:13:17.448Z,100.00
2022-11-06T04:15:50.446Z,100.00
2022-11-06T04:18:18.828Z,100.00
2022-11-06T04:21:11.674Z,100.00
2022-11-06T04:24:09.978Z,100.00
2022-11-06T04:26:42.753Z,100.00
2022-11-06T04:29:21.592Z,100.00
2022-11-06T04:31:59.165Z,100.00
2022-11-06T04:34:36.748Z,100.00
2022-11-06T04:37:11.753Z,100.00
2022-11-06T04:39:48.734Z,100.00
2022-11-06T04:42:24.122Z,100.00
2022-11-06T04:44:55.577Z,100.00
2022-11-06T04:47:24.367Z,100.00
2022-11-06T04:49:56.369Z,100.00
2022-11-06T04:52:26.269Z,100.00
2022-11-06T04:54:54.678Z,100.00
2022-11-06T04:57:22.415Z,100.00
2022-11-06T04:59:49.204Z,100.00
2022-11-06T05:02:15.986Z,100.00
2022-11-06T05:04:44.230Z,100.00
2022-11-06T05:07:13.267Z,100.00
2022-11-06T05:09:39.844Z,100.00
2022-11-06T05:12:06.799Z,100.00
2022-11-06T05:14:33.445Z,100.00
2022-11-06T05:17:00.264Z,100.00
2022-11-06T05:19:26.953Z,100.00
2022-11-06T05:22:13.332Z,100.00
2022-11-06T05:24:39.952Z,100.00
2022-11-06T05:27:06.662Z,100.00
2022-11-06T05:29:33.248Z,100.00
2022-11-06T05:31:59.883Z,100.00
2022-11-06T05:34:26.483Z,100.00
2022-11-06T05:36:53.113Z,100.00
2022-11-06T05:39:21.150Z,100.00
2022-11-06T05:41:47.764Z,100.00
2022-11-06T05:44:14.746Z,100.00
2022-11-06T05:46:49.815Z,100.00
2022-11-06T05:49:17.305Z,100.00
2022-11-06T05:51:44.013Z,100.00
2022-11-06T05:54:10.711Z,100.00
2022-11-06T05:56:38.679Z,100.00
2022-11-06T05:59:05.373Z,100.00
2022-11-06T06:01:32.069Z,100.00
2022-11-06T06:03:58.799Z,100.00
2022-11-06T06:06:26.242Z,100.00
2022-11-06T06:08:52.898Z,100.00
2022-11-06T06:11:19.536Z,100.00
2022-11-06T06:13:48.459Z,100.00
2022-11-06T06:16:15.886Z,100.00
2022-11-06T06:18:42.616Z,100.00
2022-11-06T06:21:09.317Z,100.00
2022-11-06T06:23:35.957Z,100.00
2022-11-06T06:26:02.609Z,100.00
2022-11-06T06:28:29.275Z,100.00
2022-11-06T06:31:01.266Z,100.00
2022-11-06T06:33:28.666Z,100.00
2022-11-06T06:35:55.280Z,100.00
2022-11-06T06:38:22.065Z,100.00
2022-11-06T06:40:48.650Z,100.00
2022-11-06T06:43:15.269Z,100.00
2022-11-06T06:45:41.930Z,100.00
2022-11-06T06:48:10.045Z,100.00
2022-11-06T06:50:36.802Z,100.00
2022-11-06T06:53:03.795Z,100.00
2022-11-06T06:55:30.405Z,100.00
2022-11-06T06:57:58.237Z,100.00
2022-11-06T07:00:25.804Z,100.00
2022-11-06T07:02:52.742Z,100.00
2022-11-06T07:05:20.943Z,100.00
2022-11-06T07:07:47.643Z,100.00
2022-11-06T07:10:14.595Z,100.00
2022-11-06T07:12:41.290Z,100.00
2022-11-06T07:15:09.095Z,100.00
2022-11-06T07:17:35.722Z,100.00
2022-11-06T07:20:02.363Z,100.00
2022-11-06T07:22:36.641Z,100.00
2022-11-06T07:25:04.807Z,100.00
2022-11-06T07:27:31.503Z,100.00
2022-11-06T07:30:00.391Z,100.00
2022-11-06T07:32:27.340Z,100.00
2022-11-06T07:34:54.029Z,100.00
2022-11-06T07:37:20.660Z,100.00
2022-11-06T07:39:48.763Z,100.00
2022-11-06T07:42:15.466Z,100.00
2022-11-06T07:44:42.104Z,100.00
2022-11-06T07:47:08.688Z,100.00
2022-11-06T07:49:35.311Z,100.00
2022-11-06T07:52:02.029Z,100.00
2022-11-06T07:54:28.652Z,100.00
2022-11-06T07:56:56.765Z,100.00
2022-11-06T07:59:23.420Z,100.00
2022-11-06T08:01:50.145Z,100.00
2022-11-06T08:04:16.950Z,100.00
2022-11-06T08:06:43.546Z,100.00
2022-11-06T08:09:10.197Z,100.00
2022-11-06T08:11:36.886Z,100.00
2022-11-06T08:14:04.938Z,100.00
2022-11-06T08:16:31.950Z,100.00
2022-11-06T08:18:58.738Z,100.00
2022-11-06T08:21:25.431Z,100.00
2022-11-06T08:23:52.102Z,100.00
2022-11-06T08:26:18.845Z,100.00
2022-11-06T08:28:45.561Z,100.00
2022-11-06T08:31:13.618Z,100.00
2022-11-06T08:33:40.368Z,100.00
2022-11-06T08:36:08.727Z,100.00
2022-11-06T08:38:36.721Z,100.00
2022-11-06T08:41:07.159Z,100.00
2022-11-06T08:43:34.276Z,100.00
2022-11-06T08:46:01.715Z,100.00
2022-11-06T08:48:29.801Z,100.00
2022-11-06T08:50:56.657Z,100.00
2022-11-06T08:53:23.511Z,100.00
2022-11-06T08:55:50.257Z,100.00
2022-11-06T08:58:17.302Z,100.00
2022-11-06T09:00:44.327Z,100.00
2022-11-06T09:03:13.581Z,100.00
2022-11-06T09:05:43.145Z,100.00
2022-11-06T09:08:10.742Z,100.00
2022-11-06T09:10:38.764Z,100.00
2022-11-06T09:13:05.761Z,100.00
2022-11-06T09:15:32.831Z,100.00
2022-11-06T09:17:59.606Z,100.00
2022-11-06T09:20:26.799Z,100.00
2022-11-06T09:22:59.873Z,100.00
2022-11-06T09:25:26.659Z,100.00
2022-11-06T09:27:58.997Z,100.00
2022-11-06T09:30:28.925Z,100.00
2022-11-06T09:32:57.397Z,95.79
2022-11-06T09:35:26.085Z,97.56
2022-11-06T09:37:54.230Z,97.18
2022-11-06T09:40:24.664Z,97.76
2022-11-06T09:43:07.812Z,99.92
2022-11-06T09:45:39.519Z,98.34
2022-11-06T09:48:16.109Z,97.33
2022-11-06T09:50:49.447Z,97.09
2022-11-06T09:53:22.669Z,98.46
2022-11-06T09:55:49.576Z,98.28
2022-11-06T09:58:21.511Z,97.41
2022-11-06T10:00:51.023Z,96.96
2022-11-06T10:03:22.408Z,96.30
2022-11-06T10:05:52.191Z,97.91
2022-11-06T10:08:22.902Z,96.95
2022-11-06T10:11:01.205Z,96.13
2022-11-06T10:13:45.355Z,95.37
2022-11-06T10:16:18.994Z,95.97
2022-11-06T10:18:54.481Z,94.98
2022-11-06T10:21:24.864Z,95.54
2022-11-06T10:23:57.719Z,95.57
2022-11-06T10:26:35.404Z,95.33
2022-11-06T10:29:38.831Z,93.92
2022-11-06T10:32:24.782Z,94.36
2022-11-06T10:34:58.217Z,93.00
2022-11-06T10:37:28.509Z,91.45
2022-11-06T10:39:58.394Z,88.82
2022-11-06T10:42:36.735Z,87.76
2022-11-06T10:45:10.646Z,86.41
2022-11-06T10:47:40.659Z,85.92
2022-11-06T10:50:12.967Z,84.75
2022-11-06T10:52:51.635Z,80.32
2022-11-06T10:55:52.727Z,80.27
2022-11-06T10:58:22.017Z,79.14
2022-11-06T11:00:50.512Z,76.85
2022-11-06T11:03:24.364Z,77.08
2022-11-06T11:05:51.222Z,76.22
2022-11-06T11:08:36.018Z,75.68
2022-11-06T11:11:06.214Z,76.29
2022-11-06T11:13:33.558Z,80.90
2022-11-06T11:16:03.228Z,74.17
2022-11-06T11:18:34.059Z,72.95
2022-11-06T11:21:15.326Z,71.85
2022-11-06T11:23:42.148Z,72.29
2022-11-06T11:26:24.433Z,72.66
2022-11-06T11:28:54.487Z,71.59
2022-11-06T11:31:29.035Z,73.38
2022-11-06T11:33:58.243Z,72.25
2022-11-06T11:36:24.906Z,71.59
2022-11-06T11:38:52.334Z,73.19
2022-11-06T11:41:25.311Z,73.70
2022-11-06T11:44:05.251Z,71.13
2022-11-06T11:46:32.599Z,74.57
2022-11-06T11:49:00.378Z,74.03
2022-11-06T11:51:30.121Z,73.60
2022-11-06T11:53:59.629Z,71.88
2022-11-06T11:56:50.032Z,74.16
2022-11-06T11:59:18.610Z,72.94
2022-11-06T12:01:46.359Z,72.70
2022-11-06T12:04:19.784Z,71.41
2022-11-06T12:06:52.968Z,72.96
2022-11-06T12:09:20.064Z,74.53
2022-11-06T12:11:48.456Z,79.18
2022-11-06T12:14:33.576Z,79.11
2022-11-06T12:17:14.748Z,81.73
2022-11-06T12:19:46.617Z,83.77
2022-11-06T12:25:09.515Z,85.28
2022-11-06T12:27:40.805Z,85.51
2022-11-06T12:30:11.728Z,85.39
2022-11-06T12:32:54.180Z,85.34
2022-11-06T12:35:26.809Z,86.95
2022-11-06T12:38:04.754Z,88.49
2022-11-06T12:40:35.337Z,91.08
2022-11-06T12:43:15.013Z,92.05
2022-11-06T12:46:07.458Z,93.39
2022-11-06T12:48:49.754Z,93.05
2022-11-06T12:51:23.475Z,92.74
2022-11-06T12:54:06.053Z,93.32
2022-11-06T12:56:44.116Z,95.34
2022-11-06T12:59:28.326Z,94.92
2022-11-06T13:02:01.013Z,95.89
2022-11-06T13:04:49.768Z,95.90
2022-11-06T13:07:34.870Z,96.32
2022-11-06T13:10:23.992Z,95.77
2022-11-06T13:13:00.896Z,96.57
2022-11-06T13:15:36.904Z,96.90
2022-11-06T13:18:24.782Z,96.55
2022-11-06T13:20:57.397Z,97.11
2022-11-06T13:23:29.127Z,98.04
2022-11-06T13:26:03.118Z,98.07
2022-11-06T13:28:34.777Z,97.14
2022-11-06T13:31:06.374Z,96.02
2022-11-06T13:33:38.682Z,95.70
2022-11-06T13:36:07.375Z,96.40
2022-11-06T13:38:37.651Z,96.42
2022-11-06T13:41:11.599Z,97.31
2022-11-06T13:43:41.579Z,95.68
2022-11-06T13:46:19.562Z,95.01
2022-11-06T13:48:57.005Z,96.60
2022-11-06T13:51:33.412Z,94.67
2022-11-06T13:54:09.583Z,96.86
2022-11-06T13:56:55.384Z,93.94
2022-11-06T13:59:34.293Z,93.06
2022-11-06T14:02:25.380Z,93.12
2022-11-06T14:05:20.796Z,93.22
2022-11-06T14:07:49.787Z,93.39
2022-11-06T14:10:20.357Z,92.46
2022-11-06T14:12:48.190Z,91.83
2022-11-06T14:15:25.849Z,92.58
2022-11-06T14:17:57.593Z,92.49
2022-11-06T14:20:30.345Z,92.30
2022-11-06T14:23:35.680Z,92.62
2022-11-06T14:26:05.096Z,93.13
2022-11-06T14:28:34.171Z,93.90
2022-11-06T14:31:22.627Z,94.11
2022-11-06T14:34:00.493Z,92.16
2022-11-06T14:36:34.280Z,91.99
2022-11-06T14:39:03.853Z,92.81
2022-11-06T14:41:53.356Z,92.25
2022-11-06T14:44:27.727Z,92.90
2022-11-06T14:46:58.233Z,92.38
2022-11-06T14:49:38.256Z,94.09
2022-11-06T14:52:08.007Z,94.41
2022-11-06T14:54:40.369Z,94.46
2022-11-06T14:57:11.617Z,93.58
2022-11-06T14:59:40.845Z,93.41
2022-11-06T15:02:18.829Z,93.45
2022-11-06T15:04:52.456Z,94.24
2022-11-06T15:08:03.130Z,94.82
2022-11-06T15:10:53.743Z,95.30
2022-11-06T15:13:30.199Z,96.26
2022-11-06T15:16:11.957Z,97.21
2022-11-06T15:18:40.815Z,97.98
2022-11-06T15:21:17.711Z,99.69
2022-11-06T15:23:57.661Z,99.68
2022-11-06T15:26:28.443Z,100.00
2022-11-06T15:29:12.022Z,100.00
2022-11-06T15:31:40.640Z,99.71
2022-11-06T15:34:16.025Z,99.98
2022-11-06T15:36:50.729Z,99.29
2022-11-06T15:39:33.244Z,99.91
2022-11-06T15:42:00.277Z,99.94
2022-11-06T15:44:27.204Z,98.18
2022-11-06T15:46:55.023Z,97.13
2022-11-06T15:49:22.300Z,96.64
2022-11-06T15:51:56.157Z,96.39
2022-11-06T15:54:37.084Z,96.25
2022-11-06T15:57:08.799Z,95.48
2022-11-06T15:59:35.540Z,95.15
2022-11-06T16:02:12.380Z,95.65
2022-11-06T16:04:39.487Z,95.35
2022-11-06T16:07:09.261Z,95.71
2022-11-06T16:09:36.318Z,95.66
2022-11-06T16:12:03.325Z,96.41
2022-11-06T16:14:29.994Z,97.06
2022-11-06T16:16:57.560Z,96.63
2022-11-06T16:19:30.327Z,96.63
2022-11-06T16:22:01.653Z,96.30
2022-11-06T16:24:33.559Z,96.25
2022-11-06T16:27:05.527Z,95.89
2022-11-06T16:29:32.577Z,95.39
2022-11-06T16:32:01.496Z,95.48
2022-11-06T16:34:44.178Z,95.05
2022-11-06T16:37:37.689Z,96.25
2022-11-06T16:40:45.734Z,94.99
2022-11-06T16:43:15.248Z,92.43
2022-11-06T16:45:52.381Z,93.11
2022-11-06T16:48:35.641Z,93.00
2022-11-06T16:51:06.162Z,92.24
2022-11-06T16:53:43.505Z,91.90
2022-11-06T16:56:13.580Z,92.54
2022-11-06T16:58:49.081Z,92.64
2022-11-06T17:01:20.976Z,92.26
2022-11-06T17:03:53.001Z,92.28
2022-11-06T17:06:23.637Z,92.13
2022-11-06T17:09:08.033Z,92.22
2022-11-06T17:11:38.656Z,92.40
2022-11-06T17:14:17.528Z,92.46
2022-11-06T17:16:49.838Z,93.04
2022-11-06T17:19:17.032Z,93.64
2022-11-06T17:21:43.717Z,95.55
2022-11-06T17:24:35.435Z,97.15
2022-11-06T17:26:58.552Z,98.19
2022-11-06T17:29:25.250Z,99.87
2022-11-06T17:31:52.052Z,99.31
2022-11-06T17:34:18.839Z,99.74
2022-11-06T17:36:45.553Z,100.00
2022-11-06T17:39:12.314Z,100.00
2022-11-06T17:41:38.959Z,100.00
2022-11-06T17:44:09.008Z,100.00
2022-11-06T17:46:38.543Z,100.00
2022-11-06T17:49:05.269Z,100.00
2022-11-06T17:51:50.733Z,100.00
2022-11-06T17:54:18.374Z,100.00
2022-11-06T17:56:45.188Z,100.00
2022-11-06T17:59:14.290Z,100.00
2022-11-06T18:01:41.630Z,100.00
2022-11-06T18:04:08.688Z,100.00
2022-11-06T18:06:35.498Z,100.00
2022-11-06T18:09:05.205Z,100.00
2022-11-06T18:11:31.992Z,100.00
2022-11-06T18:13:59.145Z,100.00
2022-11-06T18:16:30.509Z,100.00
2022-11-06T18:18:57.914Z,100.00
2022-11-06T18:21:25.202Z,100.00
2022-11-06T18:23:52.494Z,100.00
2022-11-06T18:26:21.556Z,100.00
2022-11-06T18:28:48.642Z,100.00
2022-11-06T18:31:15.963Z,100.00
2022-11-06T18:33:44.499Z,100.00
2022-11-06T18:36:13.185Z,100.00
2022-11-06T18:38:40.600Z,100.00
2022-11-06T18:41:07.912Z,100.00
2022-11-06T18:43:34.795Z,100.00
2022-11-06T18:46:04.606Z,100.00
2022-11-06T18:48:32.169Z,100.00
2022-11-06T18:51:05.382Z,100.00
2022-11-06T18:53:32.894Z,100.00
2022-11-06T18:55:59.846Z,100.00
2022-11-06T18:58:26.589Z,100.00
2022-11-06T19:00:57.541Z,100.00
2022-11-06T19:03:27.282Z,100.00
2022-11-06T19:05:53.968Z,100.00
2022-11-06T19:08:23.800Z,100.00
2022-11-06T19:10:50.457Z,100.00
2022-11-06T19:13:17.539Z,100.00
2022-11-06T19:15:44.985Z,100.00
2022-11-06T19:18:12.943Z,100.00
2022-11-06T19:20:40.930Z,100.00
2022-11-06T19:23:07.809Z,100.00
2022-11-06T19:25:35.890Z,100.00
2022-11-06T19:28:03.309Z,100.00
2022-11-06T19:30:30.490Z,100.00
2022-11-06T19:32:57.191Z,100.00
2022-11-06T19:35:24.109Z,100.00
2022-11-06T19:37:50.933Z,100.00
2022-11-06T19:40:18.076Z,100.00
2022-11-06T19:42:46.160Z,100.00
2022-11-06T19:45:12.924Z,100.00
2022-11-06T19:47:40.258Z,100.00
2022-11-06T19:50:07.391Z,100.00
2022-11-06T19:52:41.994Z,100.00
2022-11-06T19:55:25.487Z,100.00
2022-11-06T19:57:57.414Z,100.00
2022-11-06T20:00:24.293Z,100.00
2022-11-06T20:02:51.145Z,100.00
2022-11-06T20:05:18.817Z,100.00
2022-11-06T20:07:45.648Z,100.00
2022-11-06T20:10:12.353Z,100.00
2022-11-06T20:12:39.208Z,100.00
2022-11-06T20:15:08.341Z,100.00
2022-11-06T20:17:35.002Z,100.00
2022-11-06T20:20:01.699Z,100.00
2022-11-06T20:22:28.549Z,100.00
2022-11-06T20:24:55.232Z,100.00
2022-11-06T20:27:21.996Z,100.00
2022-11-06T20:29:48.656Z,100.00
2022-11-06T20:32:19.210Z,100.00
2022-11-06T20:34:46.151Z,100.00
2022-11-06T20:37:13.024Z,100.00
2022-11-06T20:39:41.715Z,100.00
2022-11-06T20:42:09.595Z,100.00
2022-11-06T20:44:36.497Z,100.00
2022-11-06T20:47:05.765Z,100.00
2022-11-06T20:49:34.278Z,100.00
2022-11-06T20:52:17.017Z,100.00
2022-11-06T20:54:47.635Z,100.00
2022-11-06T20:57:15.536Z,100.00
2022-11-06T20:59:43.321Z,100.00
2022-11-06T21:02:11.098Z,100.00
2022-11-06T21:04:39.976Z,100.00
2022-11-06T21:07:07.041Z,100.00
2022-11-06T21:09:34.376Z,100.00
2022-11-06T21:12:02.806Z,100.00
2022-11-06T21:14:30.246Z,100.00
2022-11-06T21:16:57.141Z,100.00
2022-11-06T21:19:24.221Z,100.00
2022-11-06T21:21:56.735Z,100.00
2022-11-06T21:24:24.072Z,100.00
2022-11-06T21:26:57.502Z,100.00
2022-11-06T21:29:24.567Z,100.00
2022-11-06T21:31:51.735Z,100.00
2022-11-06T21:34:20.270Z,100.00
2022-11-06T21:36:47.532Z,100.00
2022-11-06T21:39:17.715Z,100.00
2022-11-06T21:41:44.714Z,100.00
2022-11-06T21:44:14.651Z,100.00
2022-11-06T21:46:45.125Z,100.00
2022-11-06T21:49:13.500Z,100.00
2022-11-06T21:51:40.290Z,100.00
2022-11-06T21:54:25.438Z,100.00
2022-11-06T21:56:54.685Z,100.00
2022-11-06T21:59:27.077Z,100.00
2022-11-06T22:01:54.148Z,100.00
2022-11-06T22:04:20.985Z,100.00
2022-11-06T22:06:47.674Z,100.00
2022-11-06T22:09:16.603Z,100.00
2022-11-06T22:11:45.217Z,100.00
2022-11-06T22:14:15.333Z,100.00
2022-11-06T22:16:44.916Z,100.00
2022-11-06T22:19:13.488Z,100.00
2022-11-06T22:21:40.878Z,100.00
2022-11-06T22:24:10.269Z,100.00
2022-11-06T22:26:37.718Z,100.00
2022-11-06T22:29:07.341Z,100.00
2022-11-06T22:31:35.873Z,100.00
2022-11-06T22:34:02.970Z,100.00
2022-11-06T22:36:29.612Z,100.00
2022-11-06T22:38:57.683Z,100.00
2022-11-06T22:41:24.916Z,100.00
2022-11-06T22:43:52.498Z,100.00
2022-11-06T22:46:22.178Z,100.00
2022-11-06T22:48:51.255Z,100.00
2022-11-06T22:51:19.370Z,100.00
2022-11-06T22:53:46.341Z,100.00
2022-11-06T22:56:13.356Z,100.00
2022-11-06T22:58:40.623Z,100.00
2022-11-06T23:01:07.609Z,100.00
2022-11-06T23:03:34.349Z,100.00
2022-11-06T23:06:04.876Z,100.00
2022-11-06T23:08:32.073Z,100.00
2022-11-06T23:10:59.412Z,100.00
2022-11-06T23:13:26.076Z,100.00
2022-11-06T23:16:02.597Z,100.00
2022-11-06T23:18:29.338Z,100.00
2022-11-06T23:20:56.016Z,100.00
2022-11-06T23:23:24.548Z,100.00
2022-11-06T23:25:51.379Z,100.00
2022-11-06T23:28:18.261Z,100.00
2022-11-06T23:30:44.917Z,100.00
2022-11-06T23:33:11.833Z,100.00
2022-11-06T23:35:38.758Z,100.00
2022-11-06T23:38:05.398Z,100.00
2022-11-06T23:40:33.416Z,100.00
2022-11-06T23:43:00.112Z,100.00
2022-11-06T23:45:45.012Z,100.00
2022-11-06T23:48:13.018Z,100.00
2022-11-06T23:50:40.486Z,100.00
2022-11-06T23:53:07.454Z,100.00
2022-11-06T23:55:35.488Z,100.00
2022-11-06T23:58:02.121Z,100.00
